sensor_id;sensor_type;location;lat;lon;timestamp;P1;durP1;ratioP1;P2;durP2;ratioP2
13012;SDS011;22580;57.670;12.006;2023-10-08T00:00:04;0.17;;;0.17;;
13012;SDS011;22580;57.670;12.006;2023-10-08T00:02:47;0.30;;;0.30;;
13012;SDS011;22580;57.670;12.006;2023-10-08T00:05:14;0.20;;;0.20;;
13012;SDS011;22580;57.670;12.006;2023-10-08T00:07:42;0.50;;;0.40;;
13012;SDS011;22580;57.670;12.006;2023-10-08T00:10:09;0.60;;;0.60;;
13012;SDS011;22580;57.670;12.006;2023-10-08T00:12:37;0.30;;;0.30;;
13012;SDS011;22580;57.670;12.006;2023-10-08T00:15:05;0.27;;;0.27;;
13012;SDS011;22580;57.670;12.006;2023-10-08T00:17:35;0.30;;;0.30;;
13012;SDS011;22580;57.670;12.006;2023-10-08T00:20:06;0.37;;;0.37;;
13012;SDS011;22580;57.670;12.006;2023-10-08T00:22:34;0.20;;;0.20;;
13012;SDS011;22580;57.670;12.006;2023-10-08T00:25:01;0.10;;;0.10;;
13012;SDS011;22580;57.670;12.006;2023-10-08T00:27:36;0.10;;;0.10;;
13012;SDS011;22580;57.670;12.006;2023-10-08T00:30:04;0.10;;;0.10;;
13012;SDS011;22580;57.670;12.006;2023-10-08T00:32:42;0.07;;;0.07;;
13012;SDS011;22580;57.670;12.006;2023-10-08T00:35:11;0.10;;;0.10;;
13012;SDS011;22580;57.670;12.006;2023-10-08T00:37:39;0.10;;;0.10;;
13012;SDS011;22580;57.670;12.006;2023-10-08T00:40:06;0.13;;;0.13;;
13012;SDS011;22580;57.670;12.006;2023-10-08T00:42:46;0.20;;;0.20;;
13012;SDS011;22580;57.670;12.006;2023-10-08T00:45:16;0.20;;;0.20;;
13012;SDS011;22580;57.670;12.006;2023-10-08T00:47:47;0.10;;;0.10;;
13012;SDS011;22580;57.670;12.006;2023-10-08T00:50:16;0.10;;;0.10;;
13012;SDS011;22580;57.670;12.006;2023-10-08T00:52:47;0.10;;;0.10;;
13012;SDS011;22580;57.670;12.006;2023-10-08T00:55:27;0.10;;;0.10;;
13012;SDS011;22580;57.670;12.006;2023-10-08T00:57:56;0.30;;;0.30;;
13012;SDS011;22580;57.670;12.006;2023-10-08T01:00:35;0.00;;;0.00;;
13012;SDS011;22580;57.670;12.006;2023-10-08T01:03:06;0.10;;;0.10;;
13012;SDS011;22580;57.670;12.006;2023-10-08T01:05:41;0.20;;;0.20;;
13012;SDS011;22580;57.670;12.006;2023-10-08T01:08:12;0.20;;;0.10;;
13012;SDS011;22580;57.670;12.006;2023-10-08T01:10:44;0.10;;;0.10;;
13012;SDS011;22580;57.670;12.006;2023-10-08T01:13:12;0.00;;;0.00;;
13012;SDS011;22580;57.670;12.006;2023-10-08T01:15:45;0.10;;;0.10;;
13012;SDS011;22580;57.670;12.006;2023-10-08T01:18:15;0.00;;;0.00;;
13012;SDS011;22580;57.670;12.006;2023-10-08T01:21:00;0.10;;;0.10;;
13012;SDS011;22580;57.670;12.006;2023-10-08T01:23:34;0.27;;;0.20;;
13012;SDS011;22580;57.670;12.006;2023-10-08T01:26:03;0.10;;;0.10;;
13012;SDS011;22580;57.670;12.006;2023-10-08T01:28:37;0.10;;;0.10;;
13012;SDS011;22580;57.670;12.006;2023-10-08T01:31:08;0.10;;;0.10;;
13012;SDS011;22580;57.670;12.006;2023-10-08T01:33:37;0.13;;;0.13;;
13012;SDS011;22580;57.670;12.006;2023-10-08T01:36:12;0.20;;;0.20;;
13012;SDS011;22580;57.670;12.006;2023-10-08T01:38:42;0.10;;;0.10;;
13012;SDS011;22580;57.670;12.006;2023-10-08T01:41:13;0.10;;;0.10;;
13012;SDS011;22580;57.670;12.006;2023-10-08T01:43:44;0.10;;;0.10;;
13012;SDS011;22580;57.670;12.006;2023-10-08T01:46:11;0.10;;;0.10;;
13012;SDS011;22580;57.670;12.006;2023-10-08T01:48:41;0.27;;;0.27;;
13012;SDS011;22580;57.670;12.006;2023-10-08T01:51:10;0.20;;;0.20;;
13012;SDS011;22580;57.670;12.006;2023-10-08T01:53:51;0.10;;;0.10;;
13012;SDS011;22580;57.670;12.006;2023-10-08T01:56:20;0.20;;;0.20;;
13012;SDS011;22580;57.670;12.006;2023-10-08T01:58:47;0.10;;;0.10;;
13012;SDS011;22580;57.670;12.006;2023-10-08T02:01:19;0.30;;;0.30;;
13012;SDS011;22580;57.670;12.006;2023-10-08T02:03:46;0.10;;;0.10;;
13012;SDS011;22580;57.670;12.006;2023-10-08T02:06:13;0.30;;;0.30;;
13012;SDS011;22580;57.670;12.006;2023-10-08T02:08:41;0.20;;;0.20;;
13012;SDS011;22580;57.670;12.006;2023-10-08T02:11:10;0.10;;;0.10;;
13012;SDS011;22580;57.670;12.006;2023-10-08T02:13:37;0.20;;;0.20;;
13012;SDS011;22580;57.670;12.006;2023-10-08T02:16:04;0.30;;;0.30;;
13012;SDS011;22580;57.670;12.006;2023-10-08T02:18:32;0.10;;;0.10;;
13012;SDS011;22580;57.670;12.006;2023-10-08T02:21:00;0.10;;;0.10;;
13012;SDS011;22580;57.670;12.006;2023-10-08T02:23:27;0.10;;;0.10;;
13012;SDS011;22580;57.670;12.006;2023-10-08T02:25:54;0.10;;;0.10;;
13012;SDS011;22580;57.670;12.006;2023-10-08T02:28:24;0.10;;;0.10;;
13012;SDS011;22580;57.670;12.006;2023-10-08T02:30:52;0.20;;;0.20;;
13012;SDS011;22580;57.670;12.006;2023-10-08T02:33:19;0.20;;;0.20;;
13012;SDS011;22580;57.670;12.006;2023-10-08T02:35:47;0.10;;;0.10;;
13012;SDS011;22580;57.670;12.006;2023-10-08T02:38:15;0.20;;;0.20;;
13012;SDS011;22580;57.670;12.006;2023-10-08T02:40:43;0.00;;;0.00;;
13012;SDS011;22580;57.670;12.006;2023-10-08T02:43:11;0.20;;;0.20;;
13012;SDS011;22580;57.670;12.006;2023-10-08T02:45:41;0.10;;;0.10;;
13012;SDS011;22580;57.670;12.006;2023-10-08T02:48:12;0.10;;;0.10;;
13012;SDS011;22580;57.670;12.006;2023-10-08T02:50:41;0.20;;;0.20;;
13012;SDS011;22580;57.670;12.006;2023-10-08T02:53:10;0.10;;;0.10;;
13012;SDS011;22580;57.670;12.006;2023-10-08T02:55:43;0.10;;;0.10;;
13012;SDS011;22580;57.670;12.006;2023-10-08T02:58:11;0.10;;;0.10;;
13012;SDS011;22580;57.670;12.006;2023-10-08T03:00:42;0.10;;;0.10;;
13012;SDS011;22580;57.670;12.006;2023-10-08T03:03:09;0.20;;;0.20;;
13012;SDS011;22580;57.670;12.006;2023-10-08T03:05:42;0.00;;;0.00;;
13012;SDS011;22580;57.670;12.006;2023-10-08T03:08:11;0.20;;;0.20;;
13012;SDS011;22580;57.670;12.006;2023-10-08T03:10:38;0.10;;;0.10;;
13012;SDS011;22580;57.670;12.006;2023-10-08T03:13:06;0.10;;;0.10;;
13012;SDS011;22580;57.670;12.006;2023-10-08T03:15:36;0.10;;;0.10;;
13012;SDS011;22580;57.670;12.006;2023-10-08T03:18:13;0.10;;;0.10;;
13012;SDS011;22580;57.670;12.006;2023-10-08T03:20:41;0.10;;;0.10;;
13012;SDS011;22580;57.670;12.006;2023-10-08T03:23:11;0.10;;;0.10;;
13012;SDS011;22580;57.670;12.006;2023-10-08T03:25:50;0.10;;;0.10;;
13012;SDS011;22580;57.670;12.006;2023-10-08T03:28:22;0.13;;;0.10;;
13012;SDS011;22580;57.670;12.006;2023-10-08T03:30:50;0.10;;;0.10;;
13012;SDS011;22580;57.670;12.006;2023-10-08T03:33:29;0.10;;;0.10;;
13012;SDS011;22580;57.670;12.006;2023-10-08T03:36:00;0.10;;;0.10;;
13012;SDS011;22580;57.670;12.006;2023-10-08T03:38:34;0.10;;;0.10;;
13012;SDS011;22580;57.670;12.006;2023-10-08T03:41:16;0.10;;;0.10;;
13012;SDS011;22580;57.670;12.006;2023-10-08T03:43:46;0.10;;;0.10;;
13012;SDS011;22580;57.670;12.006;2023-10-08T03:46:28;0.10;;;0.10;;
13012;SDS011;22580;57.670;12.006;2023-10-08T03:48:58;0.10;;;0.10;;
13012;SDS011;22580;57.670;12.006;2023-10-08T03:51:30;0.20;;;0.20;;
13012;SDS011;22580;57.670;12.006;2023-10-08T03:54:04;0.00;;;0.00;;
13012;SDS011;22580;57.670;12.006;2023-10-08T03:56:42;0.20;;;0.20;;
13012;SDS011;22580;57.670;12.006;2023-10-08T03:59:13;0.10;;;0.10;;
13012;SDS011;22580;57.670;12.006;2023-10-08T04:01:45;0.10;;;0.10;;
13012;SDS011;22580;57.670;12.006;2023-10-08T04:04:16;0.10;;;0.10;;
13012;SDS011;22580;57.670;12.006;2023-10-08T04:06:43;0.03;;;0.03;;
13012;SDS011;22580;57.670;12.006;2023-10-08T04:09:14;0.20;;;0.20;;
13012;SDS011;22580;57.670;12.006;2023-10-08T04:11:51;0.10;;;0.10;;
13012;SDS011;22580;57.670;12.006;2023-10-08T04:14:18;0.10;;;0.10;;
13012;SDS011;22580;57.670;12.006;2023-10-08T04:16:46;0.20;;;0.20;;
13012;SDS011;22580;57.670;12.006;2023-10-08T04:19:18;0.10;;;0.10;;
13012;SDS011;22580;57.670;12.006;2023-10-08T04:21:50;0.10;;;0.10;;
13012;SDS011;22580;57.670;12.006;2023-10-08T04:24:23;0.10;;;0.10;;
13012;SDS011;22580;57.670;12.006;2023-10-08T04:27:00;0.10;;;0.10;;
13012;SDS011;22580;57.670;12.006;2023-10-08T04:29:28;0.10;;;0.10;;
13012;SDS011;22580;57.670;12.006;2023-10-08T04:31:58;0.10;;;0.10;;
13012;SDS011;22580;57.670;12.006;2023-10-08T04:34:34;0.10;;;0.10;;
13012;SDS011;22580;57.670;12.006;2023-10-08T04:37:02;0.10;;;0.10;;
13012;SDS011;22580;57.670;12.006;2023-10-08T04:39:37;0.10;;;0.10;;
13012;SDS011;22580;57.670;12.006;2023-10-08T04:42:13;0.10;;;0.10;;
13012;SDS011;22580;57.670;12.006;2023-10-08T04:44:51;0.10;;;0.10;;
13012;SDS011;22580;57.670;12.006;2023-10-08T04:47:19;0.10;;;0.10;;
13012;SDS011;22580;57.670;12.006;2023-10-08T04:49:58;0.20;;;0.20;;
13012;SDS011;22580;57.670;12.006;2023-10-08T04:52:25;0.10;;;0.10;;
13012;SDS011;22580;57.670;12.006;2023-10-08T04:54:53;0.10;;;0.10;;
13012;SDS011;22580;57.670;12.006;2023-10-08T04:57:20;0.10;;;0.10;;
13012;SDS011;22580;57.670;12.006;2023-10-08T04:59:50;0.10;;;0.10;;
13012;SDS011;22580;57.670;12.006;2023-10-08T05:02:24;0.10;;;0.10;;
13012;SDS011;22580;57.670;12.006;2023-10-08T05:05:15;0.20;;;0.20;;
13012;SDS011;22580;57.670;12.006;2023-10-08T05:07:49;0.10;;;0.10;;
13012;SDS011;22580;57.670;12.006;2023-10-08T05:10:42;0.10;;;0.10;;
13012;SDS011;22580;57.670;12.006;2023-10-08T05:13:26;0.10;;;0.10;;
13012;SDS011;22580;57.670;12.006;2023-10-08T05:15:58;0.10;;;0.10;;
13012;SDS011;22580;57.670;12.006;2023-10-08T05:18:37;0.00;;;0.00;;
13012;SDS011;22580;57.670;12.006;2023-10-08T05:21:23;0.17;;;0.17;;
13012;SDS011;22580;57.670;12.006;2023-10-08T05:24:16;0.20;;;0.20;;
13012;SDS011;22580;57.670;12.006;2023-10-08T05:26:52;0.00;;;0.00;;
13012;SDS011;22580;57.670;12.006;2023-10-08T05:29:40;0.10;;;0.10;;
13012;SDS011;22580;57.670;12.006;2023-10-08T05:32:35;0.10;;;0.10;;
13012;SDS011;22580;57.670;12.006;2023-10-08T05:35:30;0.20;;;0.20;;
13012;SDS011;22580;57.670;12.006;2023-10-08T05:38:22;0.17;;;0.17;;
13012;SDS011;22580;57.670;12.006;2023-10-08T05:41:03;0.20;;;0.10;;
13012;SDS011;22580;57.670;12.006;2023-10-08T05:43:31;0.10;;;0.10;;
13012;SDS011;22580;57.670;12.006;2023-10-08T05:46:16;0.20;;;0.20;;
13012;SDS011;22580;57.670;12.006;2023-10-08T05:48:59;0.13;;;0.13;;
13012;SDS011;22580;57.670;12.006;2023-10-08T05:51:29;0.10;;;0.10;;
13012;SDS011;22580;57.670;12.006;2023-10-08T05:54:13;0.20;;;0.20;;
13012;SDS011;22580;57.670;12.006;2023-10-08T05:57:01;0.10;;;0.10;;
13012;SDS011;22580;57.670;12.006;2023-10-08T05:59:50;0.03;;;0.03;;
13012;SDS011;22580;57.670;12.006;2023-10-08T06:02:34;0.10;;;0.10;;
13012;SDS011;22580;57.670;12.006;2023-10-08T06:05:26;0.10;;;0.10;;
13012;SDS011;22580;57.670;12.006;2023-10-08T06:07:58;0.00;;;0.00;;
13012;SDS011;22580;57.670;12.006;2023-10-08T06:10:37;0.10;;;0.10;;
13012;SDS011;22580;57.670;12.006;2023-10-08T06:13:21;0.10;;;0.10;;
13012;SDS011;22580;57.670;12.006;2023-10-08T06:15:56;0.10;;;0.10;;
13012;SDS011;22580;57.670;12.006;2023-10-08T06:18:34;0.10;;;0.10;;
13012;SDS011;22580;57.670;12.006;2023-10-08T06:21:02;0.10;;;0.10;;
13012;SDS011;22580;57.670;12.006;2023-10-08T06:23:35;0.10;;;0.10;;
13012;SDS011;22580;57.670;12.006;2023-10-08T06:26:05;0.10;;;0.10;;
13012;SDS011;22580;57.670;12.006;2023-10-08T06:28:40;0.20;;;0.20;;
13012;SDS011;22580;57.670;12.006;2023-10-08T06:31:09;0.10;;;0.10;;
13012;SDS011;22580;57.670;12.006;2023-10-08T06:33:41;0.10;;;0.10;;
13012;SDS011;22580;57.670;12.006;2023-10-08T06:36:09;0.10;;;0.10;;
13012;SDS011;22580;57.670;12.006;2023-10-08T06:38:41;0.10;;;0.10;;
13012;SDS011;22580;57.670;12.006;2023-10-08T06:41:11;0.10;;;0.10;;
13012;SDS011;22580;57.670;12.006;2023-10-08T06:43:43;0.07;;;0.07;;
13012;SDS011;22580;57.670;12.006;2023-10-08T06:46:13;0.20;;;0.10;;
13012;SDS011;22580;57.670;12.006;2023-10-08T06:48:41;0.10;;;0.10;;
13012;SDS011;22580;57.670;12.006;2023-10-08T06:51:08;0.00;;;0.00;;
13012;SDS011;22580;57.670;12.006;2023-10-08T06:53:40;0.10;;;0.10;;
13012;SDS011;22580;57.670;12.006;2023-10-08T06:56:07;0.10;;;0.10;;
13012;SDS011;22580;57.670;12.006;2023-10-08T06:58:39;0.10;;;0.10;;
13012;SDS011;22580;57.670;12.006;2023-10-08T07:01:11;0.10;;;0.10;;
13012;SDS011;22580;57.670;12.006;2023-10-08T07:03:38;0.00;;;0.00;;
13012;SDS011;22580;57.670;12.006;2023-10-08T07:06:05;0.10;;;0.10;;
13012;SDS011;22580;57.670;12.006;2023-10-08T07:08:42;0.20;;;0.20;;
13012;SDS011;22580;57.670;12.006;2023-10-08T07:11:12;0.10;;;0.10;;
13012;SDS011;22580;57.670;12.006;2023-10-08T07:13:40;0.10;;;0.10;;
13012;SDS011;22580;57.670;12.006;2023-10-08T07:16:08;0.10;;;0.10;;
13012;SDS011;22580;57.670;12.006;2023-10-08T07:18:36;0.10;;;0.10;;
13012;SDS011;22580;57.670;12.006;2023-10-08T07:21:03;0.10;;;0.10;;
13012;SDS011;22580;57.670;12.006;2023-10-08T07:23:37;0.10;;;0.10;;
13012;SDS011;22580;57.670;12.006;2023-10-08T07:26:21;0.10;;;0.10;;
13012;SDS011;22580;57.670;12.006;2023-10-08T07:28:50;0.10;;;0.10;;
13012;SDS011;22580;57.670;12.006;2023-10-08T07:31:19;0.10;;;0.10;;
13012;SDS011;22580;57.670;12.006;2023-10-08T07:33:48;0.20;;;0.20;;
13012;SDS011;22580;57.670;12.006;2023-10-08T07:36:21;0.30;;;0.30;;
13012;SDS011;22580;57.670;12.006;2023-10-08T07:38:49;0.30;;;0.30;;
13012;SDS011;22580;57.670;12.006;2023-10-08T07:41:17;0.17;;;0.17;;
13012;SDS011;22580;57.670;12.006;2023-10-08T07:43:45;0.30;;;0.30;;
13012;SDS011;22580;57.670;12.006;2023-10-08T07:46:19;0.20;;;0.20;;
13012;SDS011;22580;57.670;12.006;2023-10-08T07:48:46;0.20;;;0.20;;
13012;SDS011;22580;57.670;12.006;2023-10-08T07:51:15;0.20;;;0.20;;
13012;SDS011;22580;57.670;12.006;2023-10-08T07:53:47;0.20;;;0.20;;
13012;SDS011;22580;57.670;12.006;2023-10-08T07:56:14;0.30;;;0.20;;
13012;SDS011;22580;57.670;12.006;2023-10-08T07:58:43;0.20;;;0.20;;
13012;SDS011;22580;57.670;12.006;2023-10-08T08:01:09;0.30;;;0.30;;
13012;SDS011;22580;57.670;12.006;2023-10-08T08:03:40;0.23;;;0.23;;
13012;SDS011;22580;57.670;12.006;2023-10-08T08:06:10;0.20;;;0.20;;
13012;SDS011;22580;57.670;12.006;2023-10-08T08:08:38;0.20;;;0.20;;
13012;SDS011;22580;57.670;12.006;2023-10-08T08:11:06;0.33;;;0.33;;
13012;SDS011;22580;57.670;12.006;2023-10-08T08:13:37;0.30;;;0.30;;
13012;SDS011;22580;57.670;12.006;2023-10-08T08:16:07;0.47;;;0.40;;
13012;SDS011;22580;57.670;12.006;2023-10-08T08:18:44;0.20;;;0.20;;
13012;SDS011;22580;57.670;12.006;2023-10-08T08:21:12;0.20;;;0.20;;
13012;SDS011;22580;57.670;12.006;2023-10-08T08:23:41;0.30;;;0.30;;
13012;SDS011;22580;57.670;12.006;2023-10-08T08:26:13;0.33;;;0.33;;
13012;SDS011;22580;57.670;12.006;2023-10-08T08:28:53;0.10;;;0.10;;
13012;SDS011;22580;57.670;12.006;2023-10-08T08:31:22;0.50;;;0.30;;
13012;SDS011;22580;57.670;12.006;2023-10-08T08:33:52;0.20;;;0.20;;
13012;SDS011;22580;57.670;12.006;2023-10-08T08:36:22;0.30;;;0.30;;
13012;SDS011;22580;57.670;12.006;2023-10-08T08:38:50;0.40;;;0.30;;
13012;SDS011;22580;57.670;12.006;2023-10-08T08:41:18;0.50;;;0.40;;
13012;SDS011;22580;57.670;12.006;2023-10-08T08:43:47;0.33;;;0.33;;
13012;SDS011;22580;57.670;12.006;2023-10-08T08:46:22;0.20;;;0.20;;
13012;SDS011;22580;57.670;12.006;2023-10-08T08:48:57;0.40;;;0.40;;
13012;SDS011;22580;57.670;12.006;2023-10-08T08:51:29;0.30;;;0.30;;
13012;SDS011;22580;57.670;12.006;2023-10-08T08:53:56;0.27;;;0.20;;
13012;SDS011;22580;57.670;12.006;2023-10-08T08:56:25;0.40;;;0.30;;
13012;SDS011;22580;57.670;12.006;2023-10-08T08:58:53;0.30;;;0.30;;
13012;SDS011;22580;57.670;12.006;2023-10-08T09:01:21;0.47;;;0.47;;
13012;SDS011;22580;57.670;12.006;2023-10-08T09:03:48;0.20;;;0.20;;
13012;SDS011;22580;57.670;12.006;2023-10-08T09:06:16;0.47;;;0.30;;
13012;SDS011;22580;57.670;12.006;2023-10-08T09:08:44;0.43;;;0.30;;
13012;SDS011;22580;57.670;12.006;2023-10-08T09:11:16;0.40;;;0.40;;
13012;SDS011;22580;57.670;12.006;2023-10-08T09:13:43;0.20;;;0.20;;
13012;SDS011;22580;57.670;12.006;2023-10-08T09:16:12;0.30;;;0.30;;
13012;SDS011;22580;57.670;12.006;2023-10-08T09:18:41;0.20;;;0.20;;
13012;SDS011;22580;57.670;12.006;2023-10-08T09:21:12;1.17;;;0.40;;
13012;SDS011;22580;57.670;12.006;2023-10-08T09:23:42;0.30;;;0.30;;
13012;SDS011;22580;57.670;12.006;2023-10-08T09:26:12;0.20;;;0.20;;
13012;SDS011;22580;57.670;12.006;2023-10-08T09:28:44;0.97;;;0.30;;
13012;SDS011;22580;57.670;12.006;2023-10-08T09:31:13;0.30;;;0.30;;
13012;SDS011;22580;57.670;12.006;2023-10-08T09:33:42;0.27;;;0.27;;
13012;SDS011;22580;57.670;12.006;2023-10-08T09:36:19;0.63;;;0.30;;
13012;SDS011;22580;57.670;12.006;2023-10-08T09:38:58;0.33;;;0.33;;
13012;SDS011;22580;57.670;12.006;2023-10-08T09:41:26;0.53;;;0.53;;
13012;SDS011;22580;57.670;12.006;2023-10-08T09:43:55;0.40;;;0.40;;
13012;SDS011;22580;57.670;12.006;2023-10-08T09:46:26;0.27;;;0.20;;
13012;SDS011;22580;57.670;12.006;2023-10-08T09:48:58;0.37;;;0.37;;
13012;SDS011;22580;57.670;12.006;2023-10-08T09:51:27;0.30;;;0.30;;
13012;SDS011;22580;57.670;12.006;2023-10-08T09:54:01;1.07;;;0.40;;
13012;SDS011;22580;57.670;12.006;2023-10-08T09:56:35;0.30;;;0.30;;
13012;SDS011;22580;57.670;12.006;2023-10-08T09:59:04;0.30;;;0.20;;
13012;SDS011;22580;57.670;12.006;2023-10-08T10:01:32;0.20;;;0.20;;
13012;SDS011;22580;57.670;12.006;2023-10-08T10:04:00;0.23;;;0.23;;
13012;SDS011;22580;57.670;12.006;2023-10-08T10:06:27;0.43;;;0.40;;
13012;SDS011;22580;57.670;12.006;2023-10-08T10:08:55;0.37;;;0.37;;
13012;SDS011;22580;57.670;12.006;2023-10-08T10:11:27;0.37;;;0.37;;
13012;SDS011;22580;57.670;12.006;2023-10-08T10:13:57;0.40;;;0.40;;
13012;SDS011;22580;57.670;12.006;2023-10-08T10:16:26;0.40;;;0.40;;
13012;SDS011;22580;57.670;12.006;2023-10-08T10:18:55;0.30;;;0.30;;
13012;SDS011;22580;57.670;12.006;2023-10-08T10:21:27;0.13;;;0.13;;
13012;SDS011;22580;57.670;12.006;2023-10-08T10:23:56;0.20;;;0.20;;
13012;SDS011;22580;57.670;12.006;2023-10-08T10:26:28;0.20;;;0.20;;
13012;SDS011;22580;57.670;12.006;2023-10-08T10:31:51;0.30;;;0.30;;
13012;SDS011;22580;57.670;12.006;2023-10-08T10:34:21;0.20;;;0.20;;
13012;SDS011;22580;57.670;12.006;2023-10-08T10:36:52;0.77;;;0.43;;
13012;SDS011;22580;57.670;12.006;2023-10-08T10:39:24;0.30;;;0.30;;
13012;SDS011;22580;57.670;12.006;2023-10-08T10:41:58;0.20;;;0.20;;
13012;SDS011;22580;57.670;12.006;2023-10-08T10:44:31;0.40;;;0.40;;
13012;SDS011;22580;57.670;12.006;2023-10-08T10:47:02;0.63;;;0.30;;
13012;SDS011;22580;57.670;12.006;2023-10-08T10:49:47;0.30;;;0.30;;
13012;SDS011;22580;57.670;12.006;2023-10-08T10:52:19;0.40;;;0.40;;
13012;SDS011;22580;57.670;12.006;2023-10-08T10:54:57;0.20;;;0.20;;
13012;SDS011;22580;57.670;12.006;2023-10-08T10:57:27;0.20;;;0.20;;
13012;SDS011;22580;57.670;12.006;2023-10-08T11:00:03;0.30;;;0.30;;
13012;SDS011;22580;57.670;12.006;2023-10-08T11:02:56;0.30;;;0.30;;
13012;SDS011;22580;57.670;12.006;2023-10-08T11:05:27;0.87;;;0.10;;
13012;SDS011;22580;57.670;12.006;2023-10-08T11:07:56;0.43;;;0.20;;
13012;SDS011;22580;57.670;12.006;2023-10-08T11:10:30;0.20;;;0.20;;
13012;SDS011;22580;57.670;12.006;2023-10-08T11:12:59;0.30;;;0.23;;
13012;SDS011;22580;57.670;12.006;2023-10-08T11:15:27;0.33;;;0.30;;
13012;SDS011;22580;57.670;12.006;2023-10-08T11:18:06;0.20;;;0.20;;
13012;SDS011;22580;57.670;12.006;2023-10-08T11:20:34;0.20;;;0.20;;
13012;SDS011;22580;57.670;12.006;2023-10-08T11:23:05;0.20;;;0.20;;
13012;SDS011;22580;57.670;12.006;2023-10-08T11:25:54;0.20;;;0.20;;
13012;SDS011;22580;57.670;12.006;2023-10-08T11:28:27;0.20;;;0.20;;
13012;SDS011;22580;57.670;12.006;2023-10-08T11:30:54;0.20;;;0.20;;
13012;SDS011;22580;57.670;12.006;2023-10-08T11:33:24;0.10;;;0.10;;
13012;SDS011;22580;57.670;12.006;2023-10-08T11:36:00;0.20;;;0.20;;
13012;SDS011;22580;57.670;12.006;2023-10-08T11:41:15;0.10;;;0.10;;
13012;SDS011;22580;57.670;12.006;2023-10-08T11:43:57;0.10;;;0.10;;
13012;SDS011;22580;57.670;12.006;2023-10-08T11:46:26;0.10;;;0.10;;
13012;SDS011;22580;57.670;12.006;2023-10-08T11:48:58;0.20;;;0.10;;
13012;SDS011;22580;57.670;12.006;2023-10-08T11:51:29;0.10;;;0.10;;
13012;SDS011;22580;57.670;12.006;2023-10-08T11:53:57;0.10;;;0.10;;
13012;SDS011;22580;57.670;12.006;2023-10-08T11:56:25;0.20;;;0.13;;
13012;SDS011;22580;57.670;12.006;2023-10-08T11:58:52;0.10;;;0.10;;
13012;SDS011;22580;57.670;12.006;2023-10-08T12:01:23;0.10;;;0.10;;
13012;SDS011;22580;57.670;12.006;2023-10-08T12:03:52;0.10;;;0.10;;
13012;SDS011;22580;57.670;12.006;2023-10-08T12:06:24;0.20;;;0.20;;
13012;SDS011;22580;57.670;12.006;2023-10-08T12:09:05;0.10;;;0.10;;
13012;SDS011;22580;57.670;12.006;2023-10-08T12:11:37;0.10;;;0.10;;
13012;SDS011;22580;57.670;12.006;2023-10-08T12:14:06;0.10;;;0.10;;
13012;SDS011;22580;57.670;12.006;2023-10-08T12:16:35;0.05;;;0.05;;
13012;SDS011;22580;57.670;12.006;2023-10-08T12:19:04;0.10;;;0.10;;
13012;SDS011;22580;57.670;12.006;2023-10-08T12:21:40;0.00;;;0.00;;
13012;SDS011;22580;57.670;12.006;2023-10-08T12:24:12;0.10;;;0.10;;
13012;SDS011;22580;57.670;12.006;2023-10-08T12:26:40;0.10;;;0.10;;
13012;SDS011;22580;57.670;12.006;2023-10-08T12:29:10;0.10;;;0.10;;
13012;SDS011;22580;57.670;12.006;2023-10-08T12:31:40;0.08;;;0.08;;
13012;SDS011;22580;57.670;12.006;2023-10-08T12:34:12;0.10;;;0.10;;
13012;SDS011;22580;57.670;12.006;2023-10-08T12:36:39;0.10;;;0.10;;
13012;SDS011;22580;57.670;12.006;2023-10-08T12:39:07;0.20;;;0.20;;
13012;SDS011;22580;57.670;12.006;2023-10-08T12:41:36;0.20;;;0.20;;
13012;SDS011;22580;57.670;12.006;2023-10-08T12:44:04;0.15;;;0.15;;
13012;SDS011;22580;57.670;12.006;2023-10-08T12:46:33;0.15;;;0.10;;
13012;SDS011;22580;57.670;12.006;2023-10-08T12:49:03;0.20;;;0.17;;
13012;SDS011;22580;57.670;12.006;2023-10-08T12:51:30;0.13;;;0.13;;
13012;SDS011;22580;57.670;12.006;2023-10-08T12:53:58;0.10;;;0.10;;
13012;SDS011;22580;57.670;12.006;2023-10-08T12:56:31;0.20;;;0.20;;
13012;SDS011;22580;57.670;12.006;2023-10-08T12:59:04;0.10;;;0.10;;
13012;SDS011;22580;57.670;12.006;2023-10-08T13:01:32;0.10;;;0.10;;
13012;SDS011;22580;57.670;12.006;2023-10-08T13:04:01;0.10;;;0.10;;
13012;SDS011;22580;57.670;12.006;2023-10-08T13:06:41;0.32;;;0.20;;
13012;SDS011;22580;57.670;12.006;2023-10-08T13:09:10;0.20;;;0.20;;
13012;SDS011;22580;57.670;12.006;2023-10-08T13:11:38;0.20;;;0.20;;
13012;SDS011;22580;57.670;12.006;2023-10-08T13:14:05;0.20;;;0.20;;
13012;SDS011;22580;57.670;12.006;2023-10-08T13:16:32;0.20;;;0.20;;
13012;SDS011;22580;57.670;12.006;2023-10-08T13:19:03;0.10;;;0.10;;
13012;SDS011;22580;57.670;12.006;2023-10-08T13:21:34;0.15;;;0.15;;
13012;SDS011;22580;57.670;12.006;2023-10-08T13:24:02;0.10;;;0.10;;
13012;SDS011;22580;57.670;12.006;2023-10-08T13:26:30;0.00;;;0.00;;
13012;SDS011;22580;57.670;12.006;2023-10-08T13:28:58;0.17;;;0.17;;
13012;SDS011;22580;57.670;12.006;2023-10-08T13:31:26;0.13;;;0.10;;
13012;SDS011;22580;57.670;12.006;2023-10-08T13:33:54;0.35;;;0.10;;
13012;SDS011;22580;57.670;12.006;2023-10-08T13:36:23;0.10;;;0.10;;
13012;SDS011;22580;57.670;12.006;2023-10-08T13:38:50;0.10;;;0.10;;
13012;SDS011;22580;57.670;12.006;2023-10-08T13:41:17;0.10;;;0.10;;
13012;SDS011;22580;57.670;12.006;2023-10-08T13:43:45;0.32;;;0.10;;
13012;SDS011;22580;57.670;12.006;2023-10-08T13:46:13;0.10;;;0.10;;
13012;SDS011;22580;57.670;12.006;2023-10-08T13:48:43;0.10;;;0.10;;
13012;SDS011;22580;57.670;12.006;2023-10-08T13:51:13;0.10;;;0.10;;
13012;SDS011;22580;57.670;12.006;2023-10-08T13:53:49;0.10;;;0.10;;
13012;SDS011;22580;57.670;12.006;2023-10-08T13:56:18;0.10;;;0.10;;
13012;SDS011;22580;57.670;12.006;2023-10-08T13:58:50;0.08;;;0.08;;
13012;SDS011;22580;57.670;12.006;2023-10-08T14:01:21;0.32;;;0.30;;
13012;SDS011;22580;57.670;12.006;2023-10-08T14:03:51;0.25;;;0.20;;
13012;SDS011;22580;57.670;12.006;2023-10-08T14:06:19;0.28;;;0.20;;
13012;SDS011;22580;57.670;12.006;2023-10-08T14:08:49;0.30;;;0.20;;
13012;SDS011;22580;57.670;12.006;2023-10-08T14:11:18;0.40;;;0.40;;
13012;SDS011;22580;57.670;12.006;2023-10-08T14:13:49;0.60;;;0.43;;
13012;SDS011;22580;57.670;12.006;2023-10-08T14:16:16;0.95;;;0.55;;
13012;SDS011;22580;57.670;12.006;2023-10-08T14:18:48;0.40;;;0.40;;
13012;SDS011;22580;57.670;12.006;2023-10-08T14:21:19;0.60;;;0.20;;
13012;SDS011;22580;57.670;12.006;2023-10-08T14:23:50;0.10;;;0.10;;
13012;SDS011;22580;57.670;12.006;2023-10-08T14:26:18;0.20;;;0.20;;
13012;SDS011;22580;57.670;12.006;2023-10-08T14:28:48;0.17;;;0.17;;
13012;SDS011;22580;57.670;12.006;2023-10-08T14:31:18;0.10;;;0.10;;
13012;SDS011;22580;57.670;12.006;2023-10-08T14:33:48;0.03;;;0.03;;
13012;SDS011;22580;57.670;12.006;2023-10-08T14:36:30;0.20;;;0.20;;
13012;SDS011;22580;57.670;12.006;2023-10-08T14:39:17;0.30;;;0.30;;
13012;SDS011;22580;57.670;12.006;2023-10-08T14:42:10;0.70;;;0.10;;
13012;SDS011;22580;57.670;12.006;2023-10-08T14:44:54;0.10;;;0.10;;
13012;SDS011;22580;57.670;12.006;2023-10-08T14:47:21;0.10;;;0.10;;
13012;SDS011;22580;57.670;12.006;2023-10-08T14:49:48;0.15;;;0.15;;
13012;SDS011;22580;57.670;12.006;2023-10-08T14:52:16;0.20;;;0.20;;
13012;SDS011;22580;57.670;12.006;2023-10-08T14:54:45;0.20;;;0.20;;
13012;SDS011;22580;57.670;12.006;2023-10-08T14:57:12;0.20;;;0.20;;
13012;SDS011;22580;57.670;12.006;2023-10-08T14:59:39;0.90;;;0.80;;
13012;SDS011;22580;57.670;12.006;2023-10-08T15:02:07;1.03;;;0.93;;
13012;SDS011;22580;57.670;12.006;2023-10-08T15:04:35;0.90;;;0.90;;